createdAt,value
2022-09-12T00:00:53.740Z,30.29
2022-09-12T00:01:53.795Z,30.19
2022-09-12T00:02:53.687Z,30.29
2022-09-12T00:03:53.687Z,30.19
2022-09-12T00:04:53.693Z,30.19
2022-09-12T00:05:53.710Z,30.09
2022-09-12T00:06:53.689Z,30.29
2022-09-12T00:07:53.688Z,30.38
2022-09-12T00:08:53.689Z,30.38
2022-09-12T00:09:53.689Z,30.29
2022-09-12T00:10:53.690Z,30.29
2022-09-12T00:11:53.689Z,30.29
2022-09-12T00:12:53.691Z,30.09
2022-09-12T00:13:53.688Z,30.09
2022-09-12T00:14:53.691Z,30.48
2022-09-12T00:15:53.690Z,30.19
2022-09-12T00:16:53.786Z,30.09
2022-09-12T00:17:53.690Z,30.29
2022-09-12T00:18:53.701Z,30.38
2022-09-12T00:19:53.941Z,30.29
2022-09-12T00:20:53.706Z,30.19
2022-09-12T00:21:53.713Z,30.38
2022-09-12T00:22:53.694Z,30.29
2022-09-12T00:23:53.692Z,30.29
2022-09-12T00:24:53.692Z,30.29
2022-09-12T00:25:53.691Z,30.19
2022-09-12T00:26:53.692Z,30.29
2022-09-12T00:27:53.692Z,30.29
2022-09-12T00:28:53.693Z,30.00
2022-09-12T00:29:53.691Z,30.38
2022-09-12T00:30:53.693Z,30.19
2022-09-12T00:31:53.758Z,30.38
2022-09-12T00:32:53.696Z,30.19
2022-09-12T00:33:53.693Z,30.38
2022-09-12T00:34:53.694Z,30.29
2022-09-12T00:35:53.694Z,30.38
2022-09-12T00:36:53.694Z,30.29
2022-09-12T00:37:53.716Z,30.38
2022-09-12T00:38:53.694Z,30.29
2022-09-12T00:39:53.714Z,30.00
2022-09-12T00:40:53.696Z,30.29
2022-09-12T00:41:53.693Z,30.29
2022-09-12T00:42:53.696Z,30.29
2022-09-12T00:43:53.697Z,30.19
2022-09-12T00:44:53.696Z,30.00
2022-09-12T00:45:53.790Z,30.29
2022-09-12T00:46:53.695Z,30.29
2022-09-12T00:47:53.696Z,30.29
2022-09-12T00:48:53.697Z,30.38
2022-09-12T00:49:53.695Z,30.38
2022-09-12T00:50:53.697Z,30.38
2022-09-12T00:51:53.696Z,30.19
2022-09-12T00:52:53.697Z,30.38
2022-09-12T00:53:53.720Z,30.48
2022-09-12T00:54:53.698Z,30.48
2022-09-12T00:55:53.702Z,30.38
2022-09-12T00:56:53.699Z,30.48
2022-09-12T00:57:53.700Z,30.58
2022-09-12T00:58:53.698Z,30.48
2022-09-12T00:59:53.698Z,30.48
2022-09-12T01:00:53.797Z,30.58
2022-09-12T01:01:53.851Z,30.48
2022-09-12T01:02:53.699Z,30.48
2022-09-12T01:03:53.700Z,30.48
2022-09-12T01:04:53.700Z,30.58
2022-09-12T01:05:53.698Z,30.48
2022-09-12T01:06:53.699Z,30.38
2022-09-12T01:07:53.698Z,30.68
2022-09-12T01:08:53.701Z,30.38
2022-09-12T01:09:53.720Z,30.38
2022-09-12T01:10:53.700Z,30.58
2022-09-12T01:11:53.699Z,30.38
2022-09-12T01:12:53.702Z,30.38
2022-09-12T01:13:53.700Z,30.38
2022-09-12T01:14:53.703Z,30.38
2022-09-12T01:15:53.701Z,30.97
2022-09-12T01:16:53.701Z,30.77
2022-09-12T01:17:53.701Z,30.97
2022-09-12T01:18:53.701Z,30.97
2022-09-12T01:19:53.701Z,31.07
2022-09-12T01:20:53.702Z,31.07
2022-09-12T01:21:53.701Z,30.87
2022-09-12T01:22:53.704Z,31.07
2022-09-12T01:23:53.702Z,30.87
2022-09-12T01:24:53.704Z,30.97
2022-09-12T01:25:53.737Z,30.87
2022-09-12T01:26:53.702Z,30.97
2022-09-12T01:27:53.705Z,30.97
2022-09-12T01:28:53.703Z,30.97
2022-09-12T01:29:53.703Z,30.87
2022-09-12T01:30:53.705Z,30.77
2022-09-12T01:31:53.751Z,30.97
2022-09-12T01:32:53.706Z,30.87
2022-09-12T01:33:53.705Z,30.97
2022-09-12T01:34:53.703Z,30.97
2022-09-12T01:35:53.704Z,30.87
2022-09-12T01:36:53.706Z,30.97
2022-09-12T01:37:53.709Z,30.87
2022-09-12T01:38:53.705Z,30.97
2022-09-12T01:39:53.768Z,30.87
2022-09-12T01:40:53.705Z,30.97
2022-09-12T01:41:53.726Z,30.97
2022-09-12T01:42:53.706Z,30.87
2022-09-12T01:43:53.705Z,30.87
2022-09-12T01:44:53.708Z,30.87
2022-09-12T01:45:53.760Z,30.87
2022-09-12T01:46:53.706Z,30.97
2022-09-12T01:47:53.713Z,30.87
2022-09-12T01:48:53.714Z,30.97
2022-09-12T01:49:53.709Z,30.97
2022-09-12T01:50:53.708Z,30.87
2022-09-12T01:51:53.708Z,30.97
2022-09-12T01:52:53.724Z,30.87
2022-09-12T01:53:53.712Z,30.87
2022-09-12T01:54:53.708Z,30.87
2022-09-12T01:55:53.707Z,30.77
2022-09-12T01:56:53.709Z,30.77
2022-09-12T01:57:53.730Z,30.87
2022-09-12T01:58:53.708Z,30.77
2022-09-12T01:59:53.709Z,30.97
2022-09-12T02:00:53.795Z,30.87
2022-09-12T02:01:53.752Z,30.77
2022-09-12T02:02:53.711Z,30.77
2022-09-12T02:03:53.712Z,30.87
2022-09-12T02:04:53.711Z,30.87
2022-09-12T02:05:53.711Z,30.97
2022-09-12T02:06:53.713Z,30.87
2022-09-12T02:07:53.713Z,30.97
2022-09-12T02:08:53.710Z,30.87
2022-09-12T02:09:53.710Z,30.97
2022-09-12T02:10:53.711Z,30.77
2022-09-12T02:11:53.710Z,30.58
2022-09-12T02:12:53.712Z,30.68
2022-09-12T02:13:53.733Z,31.07
2022-09-12T02:14:53.710Z,30.87
2022-09-12T02:15:53.711Z,30.58
2022-09-12T02:16:53.712Z,30.77
2022-09-12T02:17:53.710Z,30.87
2022-09-12T02:18:53.713Z,30.77
2022-09-12T02:19:53.711Z,30.77
2022-09-12T02:20:53.714Z,30.87
2022-09-12T02:21:53.710Z,30.87
2022-09-12T02:22:53.712Z,30.77
2022-09-12T02:23:53.713Z,30.87
2022-09-12T02:24:53.713Z,30.97
2022-09-12T02:25:53.711Z,30.87
2022-09-12T02:26:53.715Z,30.87
2022-09-12T02:27:53.712Z,30.87
2022-09-12T02:28:53.716Z,30.77
2022-09-12T02:29:53.734Z,30.87
2022-09-12T02:30:53.782Z,30.77
2022-09-12T02:31:53.713Z,30.77
2022-09-12T02:32:53.715Z,30.77
2022-09-12T02:33:53.713Z,30.97
2022-09-12T02:34:53.714Z,30.87
2022-09-12T02:35:53.717Z,30.87
2022-09-12T02:36:53.716Z,30.68
2022-09-12T02:37:53.717Z,30.58
2022-09-12T02:38:53.715Z,30.77
2022-09-12T02:39:53.767Z,30.77
2022-09-12T02:40:53.716Z,30.68
2022-09-12T02:41:53.715Z,30.68
2022-09-12T02:42:53.717Z,30.77
2022-09-12T02:43:53.716Z,30.68
2022-09-12T02:44:53.716Z,30.58
2022-09-12T02:45:53.783Z,30.77
2022-09-12T02:46:53.716Z,30.77
2022-09-12T02:47:53.717Z,30.68
2022-09-12T02:48:53.717Z,30.68
2022-09-12T02:49:53.716Z,30.77
2022-09-12T02:50:53.718Z,30.68
2022-09-12T02:51:53.717Z,30.58
2022-09-12T02:52:53.719Z,30.77
2022-09-12T02:53:53.716Z,30.58
2022-09-12T02:54:53.718Z,30.58
2022-09-12T02:55:53.719Z,30.58
2022-09-12T02:56:53.720Z,30.58
2022-09-12T02:57:53.719Z,30.68
2022-09-12T02:58:53.719Z,30.68
2022-09-12T02:59:53.718Z,30.68
2022-09-12T03:00:53.820Z,30.58
2022-09-12T03:01:53.793Z,30.68
2022-09-12T03:02:53.722Z,30.68
2022-09-12T03:03:53.720Z,30.68
2022-09-12T03:04:53.720Z,30.68
2022-09-12T03:05:53.720Z,30.68
2022-09-12T03:06:53.721Z,30.68
2022-09-12T03:07:53.720Z,30.68
2022-09-12T03:08:53.722Z,30.68
2022-09-12T03:09:53.720Z,30.68
2022-09-12T03:10:53.722Z,30.77
2022-09-12T03:11:53.721Z,30.77
2022-09-12T03:12:53.724Z,30.77
2022-09-12T03:13:53.722Z,30.77
2022-09-12T03:14:53.723Z,30.68
2022-09-12T03:15:53.721Z,30.68
2022-09-12T03:16:53.724Z,30.77
2022-09-12T03:17:53.744Z,30.68
2022-09-12T03:18:53.724Z,30.68
2022-09-12T03:19:53.872Z,30.77
2022-09-12T03:20:53.723Z,30.97
2022-09-12T03:21:53.726Z,30.77
2022-09-12T03:22:53.729Z,30.68
2022-09-12T03:23:53.722Z,30.68
2022-09-12T03:24:53.725Z,30.68
2022-09-12T03:25:53.723Z,30.68
2022-09-12T03:26:53.725Z,30.87
2022-09-12T03:27:53.727Z,30.87
2022-09-12T03:28:53.725Z,31.07
2022-09-12T03:29:53.724Z,30.68
2022-09-12T03:30:53.790Z,31.07
2022-09-12T03:31:53.724Z,30.77
2022-09-12T03:32:53.727Z,30.68
2022-09-12T03:33:53.745Z,30.68
2022-09-12T03:34:53.725Z,30.68
2022-09-12T03:35:53.726Z,30.68
2022-09-12T03:36:53.726Z,30.68
2022-09-12T03:37:53.726Z,30.68
2022-09-12T03:38:53.725Z,30.87
2022-09-12T03:39:53.785Z,30.68
2022-09-12T03:40:55.001Z,30.97
2022-09-12T03:41:53.726Z,30.87
2022-09-12T03:42:53.726Z,30.87
2022-09-12T03:43:53.728Z,30.77
2022-09-12T03:44:53.728Z,31.26
2022-09-12T03:45:53.802Z,30.68
2022-09-12T03:46:53.727Z,31.16
2022-09-12T03:47:53.728Z,30.77
2022-09-12T03:48:53.729Z,31.26
2022-09-12T03:49:53.751Z,30.87
2022-09-12T03:50:53.728Z,30.77
2022-09-12T03:51:53.730Z,31.16
2022-09-12T03:52:53.730Z,30.77
2022-09-12T03:53:53.730Z,31.26
2022-09-12T03:54:53.728Z,30.87
2022-09-12T03:55:53.731Z,30.77
2022-09-12T03:56:53.731Z,30.77
2022-09-12T03:57:53.734Z,30.77
2022-09-12T03:58:53.729Z,30.77
2022-09-12T03:59:53.730Z,31.26
2022-09-12T04:00:53.781Z,31.26
2022-09-12T04:01:53.769Z,30.87
2022-09-12T04:02:53.733Z,31.26
2022-09-12T04:03:53.731Z,30.77
2022-09-12T04:04:53.732Z,30.77
2022-09-12T04:05:53.754Z,30.77
2022-09-12T04:06:53.732Z,30.68
2022-09-12T04:07:53.732Z,30.77
2022-09-12T04:08:53.732Z,30.77
2022-09-12T04:09:53.732Z,31.26
2022-09-12T04:10:53.731Z,31.26
2022-09-12T04:11:53.733Z,31.26
2022-09-12T04:12:53.735Z,30.77
2022-09-12T04:13:53.732Z,31.16
2022-09-12T04:14:53.739Z,30.68
2022-09-12T04:15:53.734Z,31.26
2022-09-12T04:16:53.759Z,31.26
2022-09-12T04:17:53.736Z,31.07
2022-09-12T04:18:53.733Z,30.77
2022-09-12T04:19:53.885Z,31.07
2022-09-12T04:20:53.734Z,31.16
2022-09-12T04:21:53.754Z,31.07
2022-09-12T04:22:53.734Z,31.16
2022-09-12T04:23:53.738Z,31.16
2022-09-12T04:24:53.738Z,31.07
2022-09-12T04:25:53.736Z,31.16
2022-09-12T04:26:53.736Z,31.16
2022-09-12T04:27:53.737Z,31.26
2022-09-12T04:28:53.740Z,31.16
2022-09-12T04:29:53.736Z,31.35
2022-09-12T04:30:53.776Z,31.07
2022-09-12T04:31:53.736Z,31.26
2022-09-12T04:32:53.751Z,31.07
2022-09-12T04:33:53.738Z,30.77
2022-09-12T04:34:53.736Z,31.16
2022-09-12T04:35:53.738Z,31.07
2022-09-12T04:36:53.737Z,31.16
2022-09-12T04:37:53.759Z,31.07
2022-09-12T04:38:53.738Z,31.16
2022-09-12T04:39:53.784Z,31.26
2022-09-12T04:40:53.737Z,31.07
2022-09-12T04:41:53.738Z,31.07
2022-09-12T04:42:53.739Z,31.07
2022-09-12T04:43:53.740Z,31.07
2022-09-12T04:44:53.741Z,31.16
2022-09-12T04:45:53.759Z,31.16
2022-09-12T04:46:53.738Z,31.16
2022-09-12T04:47:53.740Z,31.16
2022-09-12T04:48:56.870Z,31.07
2022-09-12T04:49:53.741Z,31.26
2022-09-12T04:50:53.739Z,31.07
2022-09-12T04:51:53.741Z,31.07
2022-09-12T04:52:53.742Z,31.16
2022-09-12T04:53:53.763Z,31.16
2022-09-12T04:54:53.741Z,31.07
2022-09-12T04:55:53.741Z,31.07
2022-09-12T04:56:53.959Z,31.07
2022-09-12T04:57:53.742Z,31.26
2022-09-12T04:58:53.741Z,31.16
2022-09-12T04:59:53.742Z,31.16
2022-09-12T05:00:53.775Z,31.07
2022-09-12T05:01:53.800Z,31.16
2022-09-12T05:02:53.741Z,31.07
2022-09-12T05:03:53.744Z,31.16
2022-09-12T05:04:53.745Z,31.16
2022-09-12T05:05:56.446Z,31.16
2022-09-12T05:06:53.742Z,31.07
2022-09-12T05:07:53.743Z,31.07
2022-09-12T05:08:53.750Z,31.16
2022-09-12T05:09:53.766Z,31.07
2022-09-12T05:10:53.744Z,31.16
2022-09-12T05:12:09.174Z,31.16
2022-09-12T05:12:53.743Z,31.07
2022-09-12T05:13:53.745Z,31.07
2022-09-12T05:14:53.743Z,31.07
2022-09-12T05:15:53.747Z,31.07
2022-09-12T05:16:53.818Z,31.16
2022-09-12T05:17:53.745Z,31.07
2022-09-12T05:18:53.744Z,31.07
2022-09-12T05:19:53.747Z,31.16
2022-09-12T05:20:53.746Z,31.16
2022-09-12T05:21:53.747Z,31.16
2022-09-12T05:22:53.745Z,31.16
2022-09-12T05:23:53.747Z,31.16
2022-09-12T05:24:53.748Z,31.16
2022-09-12T05:25:53.770Z,31.07
2022-09-12T05:26:53.745Z,31.16
2022-09-12T05:27:53.747Z,31.16
2022-09-12T05:28:53.748Z,31.16
2022-09-12T05:29:53.748Z,31.07
2022-09-12T05:30:53.799Z,31.16
2022-09-12T05:31:53.751Z,31.07
2022-09-12T05:32:53.749Z,31.16
2022-09-12T05:33:53.750Z,31.16
2022-09-12T05:34:53.747Z,31.16
2022-09-12T05:35:53.750Z,31.16
2022-09-12T05:36:53.749Z,31.07
2022-09-12T05:37:53.753Z,31.16
2022-09-12T05:38:53.748Z,31.16
2022-09-12T05:39:53.799Z,31.07
2022-09-12T05:40:53.749Z,31.07
2022-09-12T05:41:53.771Z,31.07
2022-09-12T05:42:53.749Z,31.07
2022-09-12T05:43:53.753Z,31.07
2022-09-12T05:44:53.749Z,31.07
2022-09-12T05:45:53.791Z,31.16
2022-09-12T05:46:53.755Z,31.07
2022-09-12T05:47:53.752Z,31.07
2022-09-12T05:48:56.085Z,31.07
2022-09-12T05:49:53.751Z,31.07
2022-09-12T05:50:53.752Z,31.26
2022-09-12T05:51:53.753Z,31.07
2022-09-12T05:52:53.752Z,31.07
2022-09-12T05:53:53.753Z,31.07
2022-09-12T05:54:53.759Z,31.16
2022-09-12T05:55:53.754Z,31.16
2022-09-12T05:56:53.753Z,31.07
2022-09-12T05:57:53.775Z,31.07
2022-09-12T05:58:53.752Z,31.07
2022-09-12T05:59:53.754Z,31.16
2022-09-12T06:00:53.753Z,31.16
2022-09-12T06:01:53.754Z,31.16
2022-09-12T06:02:53.754Z,31.07
2022-09-12T06:03:53.755Z,31.16
2022-09-12T06:04:53.755Z,31.07
2022-09-12T06:05:53.754Z,31.07
2022-09-12T06:06:53.754Z,31.07
2022-09-12T06:07:53.756Z,31.07
2022-09-12T06:08:53.755Z,31.16
2022-09-12T06:09:53.756Z,31.16
2022-09-12T06:10:53.755Z,31.16
2022-09-12T06:11:53.756Z,31.07
2022-09-12T06:12:53.756Z,31.26
2022-09-12T06:13:53.778Z,31.07
2022-09-12T06:14:53.756Z,31.07
2022-09-12T06:15:53.757Z,31.07
2022-09-12T06:16:53.837Z,31.07
2022-09-12T06:17:53.757Z,31.16
2022-09-12T06:18:53.756Z,31.26
2022-09-12T06:19:53.760Z,30.97
2022-09-12T06:20:53.756Z,31.26
2022-09-12T06:21:53.759Z,31.07
2022-09-12T06:22:53.757Z,31.07
2022-09-12T06:23:53.759Z,31.16
2022-09-12T06:24:57.363Z,31.26
2022-09-12T06:25:53.758Z,31.16
2022-09-12T06:26:53.759Z,31.07
2022-09-12T06:27:53.759Z,31.07
2022-09-12T06:28:53.758Z,31.26
2022-09-12T06:29:53.781Z,31.26
2022-09-12T06:30:53.786Z,31.07
2022-09-12T06:31:53.760Z,31.26
2022-09-12T06:32:53.762Z,31.07
2022-09-12T06:33:53.762Z,31.07
2022-09-12T06:34:53.760Z,31.07
2022-09-12T06:35:53.762Z,31.07
2022-09-12T06:36:53.760Z,31.16
2022-09-12T06:37:53.761Z,31.16
2022-09-12T06:38:53.761Z,31.07
2022-09-12T06:39:53.844Z,31.07
2022-09-12T06:40:53.761Z,31.26
2022-09-12T06:41:53.761Z,31.26
2022-09-12T06:42:53.761Z,31.07
2022-09-12T06:43:53.762Z,31.16
2022-09-12T06:44:53.763Z,30.97
2022-09-12T06:45:53.809Z,31.07
2022-09-12T06:46:53.761Z,31.16
2022-09-12T06:47:53.765Z,31.16
2022-09-12T06:48:53.763Z,31.07
2022-09-12T06:49:53.763Z,31.16
2022-09-12T06:50:53.763Z,31.26
2022-09-12T06:51:53.763Z,31.26
2022-09-12T06:52:53.763Z,31.07
2022-09-12T06:53:53.764Z,31.07
2022-09-12T06:54:53.763Z,31.16
2022-09-12T06:55:53.765Z,31.16
2022-09-12T06:56:53.766Z,31.26
2022-09-12T06:57:53.764Z,31.07
2022-09-12T06:58:53.764Z,31.16
2022-09-12T06:59:53.766Z,31.16
2022-09-12T07:00:58.532Z,31.26
2022-09-12T07:01:53.951Z,31.16
2022-09-12T07:02:53.764Z,31.26
2022-09-12T07:03:53.766Z,31.16
2022-09-12T07:04:53.766Z,31.07
2022-09-12T07:05:53.768Z,31.26
2022-09-12T07:06:53.767Z,31.26
2022-09-12T07:07:53.768Z,31.16
2022-09-12T07:08:53.766Z,31.26
2022-09-12T07:09:53.769Z,31.16
2022-09-12T07:10:53.767Z,31.16
2022-09-12T07:11:53.768Z,31.07
2022-09-12T07:12:53.768Z,31.26
2022-09-12T07:13:53.768Z,31.16
2022-09-12T07:14:53.768Z,31.16
2022-09-12T07:15:53.770Z,31.26
2022-09-12T07:16:53.821Z,31.35
2022-09-12T07:17:53.797Z,31.26
2022-09-12T07:18:53.768Z,31.26
2022-09-12T07:19:53.771Z,31.45
2022-09-12T07:20:53.771Z,31.26
2022-09-12T07:21:58.034Z,31.26
2022-09-12T07:22:53.776Z,31.45
2022-09-12T07:23:53.770Z,31.16
2022-09-12T07:24:53.771Z,31.26
2022-09-12T07:25:53.770Z,31.26
2022-09-12T07:26:53.776Z,31.35
2022-09-12T07:27:53.772Z,31.35
2022-09-12T07:28:53.771Z,31.35
2022-09-12T07:29:53.771Z,31.07
2022-09-12T07:30:53.806Z,31.16
2022-09-12T07:31:53.772Z,31.35
2022-09-12T07:32:53.771Z,31.35
2022-09-12T07:33:54.711Z,31.26
2022-09-12T07:34:53.771Z,31.35
2022-09-12T07:35:53.775Z,31.16
2022-09-12T07:36:53.772Z,31.26
2022-09-12T07:37:53.774Z,31.26
2022-09-12T07:38:57.214Z,31.26
2022-09-12T07:39:53.790Z,31.26
2022-09-12T07:40:53.776Z,31.55
2022-09-12T07:41:53.778Z,31.26
2022-09-12T07:42:53.773Z,31.26
2022-09-12T07:43:53.774Z,31.26
2022-09-12T07:44:53.775Z,31.35
2022-09-12T07:45:53.787Z,31.26
2022-09-12T07:46:53.775Z,31.26
2022-09-12T07:47:53.777Z,31.45
2022-09-12T07:48:53.776Z,31.35
2022-09-12T07:49:53.819Z,31.26
2022-09-12T07:50:53.777Z,31.26
2022-09-12T07:51:53.776Z,31.26
2022-09-12T07:52:53.779Z,31.45
2022-09-12T07:53:53.776Z,31.55
2022-09-12T07:54:53.778Z,31.55
2022-09-12T07:55:53.777Z,31.45
2022-09-12T07:56:53.780Z,31.45
2022-09-12T07:57:53.776Z,31.35
2022-09-12T07:58:53.779Z,31.55
2022-09-12T07:59:53.778Z,31.45
2022-09-12T08:00:53.779Z,31.45
2022-09-12T08:01:53.778Z,31.45
2022-09-12T08:02:53.825Z,31.45
2022-09-12T08:03:53.778Z,31.45
2022-09-12T08:04:53.784Z,31.55
2022-09-12T08:05:53.800Z,31.35
2022-09-12T08:06:53.779Z,31.35
2022-09-12T08:07:57.674Z,31.55
2022-09-12T08:08:53.780Z,31.55
2022-09-12T08:09:53.785Z,31.45
2022-09-12T08:10:53.781Z,31.55
2022-09-12T08:11:53.780Z,31.45
2022-09-12T08:12:53.782Z,31.35
2022-09-12T08:13:55.773Z,31.55
2022-09-12T08:14:53.782Z,31.55
2022-09-12T08:15:53.840Z,31.35
2022-09-12T08:16:53.782Z,31.45
2022-09-12T08:17:53.782Z,31.55
2022-09-12T08:18:53.783Z,31.65
2022-09-12T08:19:53.933Z,31.74
2022-09-12T08:20:53.784Z,31.74
2022-09-12T08:21:53.804Z,31.55
2022-09-12T08:22:53.785Z,31.65
2022-09-12T08:23:53.783Z,31.35
2022-09-12T08:24:53.784Z,31.74
2022-09-12T08:25:53.783Z,31.65
2022-09-12T08:26:53.784Z,31.84
2022-09-12T08:27:53.783Z,31.55
2022-09-12T08:28:53.787Z,31.65
2022-09-12T08:29:53.783Z,31.65
2022-09-12T08:30:53.851Z,31.55
2022-09-12T08:31:57.093Z,31.45
2022-09-12T08:32:53.785Z,31.74
2022-09-12T08:33:53.784Z,31.94
2022-09-12T08:34:53.786Z,32.04
2022-09-12T08:35:53.787Z,31.94
2022-09-12T08:36:53.787Z,31.65
2022-09-12T08:37:53.809Z,31.65
2022-09-12T08:38:59.102Z,31.94
2022-09-12T08:39:53.836Z,32.13
2022-09-12T08:40:53.788Z,32.13
2022-09-12T08:41:53.787Z,32.32
2022-09-12T08:42:53.788Z,32.23
2022-09-12T08:43:56.689Z,32.32
2022-09-12T08:44:53.790Z,32.13
2022-09-12T08:45:53.859Z,32.32
2022-09-12T08:46:53.788Z,32.42
2022-09-12T08:47:53.790Z,32.13
2022-09-12T08:48:53.789Z,32.42
2022-09-12T08:49:53.788Z,32.13
2022-09-12T08:50:53.790Z,32.04
2022-09-12T08:51:53.788Z,32.23
2022-09-12T08:52:53.790Z,32.23
2022-09-12T08:53:53.810Z,32.23
2022-09-12T08:54:53.792Z,32.32
2022-09-12T08:55:53.794Z,32.13
2022-09-12T08:56:53.791Z,32.04
2022-09-12T08:57:53.790Z,32.04
2022-09-12T08:58:53.792Z,31.94
2022-09-12T08:59:53.791Z,32.04
2022-09-12T09:00:53.794Z,32.04
2022-09-12T09:01:53.875Z,32.13
2022-09-12T09:02:53.862Z,32.13
2022-09-12T09:03:53.795Z,32.13
2022-09-12T09:04:53.793Z,31.94
2022-09-12T09:05:53.791Z,31.94
2022-09-12T09:06:53.798Z,32.23
2022-09-12T09:07:53.793Z,32.23
2022-09-12T09:08:53.793Z,32.32
2022-09-12T09:09:53.814Z,32.42
2022-09-12T09:10:53.794Z,32.52
2022-09-12T09:11:53.795Z,32.32
2022-09-12T09:12:53.797Z,32.52
2022-09-12T09:13:53.793Z,32.52
2022-09-12T09:14:53.803Z,32.42
2022-09-12T09:15:53.829Z,32.32
2022-09-12T09:16:53.798Z,32.52
2022-09-12T09:17:53.795Z,32.23
2022-09-12T09:18:53.797Z,32.32
2022-09-12T09:19:53.879Z,32.13
2022-09-12T09:20:53.797Z,32.32
2022-09-12T09:21:53.794Z,32.42
2022-09-12T09:22:53.804Z,32.42
2022-09-12T09:23:53.797Z,32.42
2022-09-12T09:24:53.798Z,32.32
2022-09-12T09:25:53.827Z,32.71
2022-09-12T09:26:53.797Z,32.52
2022-09-12T09:27:53.799Z,32.62
2022-09-12T09:28:53.799Z,32.71
2022-09-12T09:29:53.875Z,32.42
2022-09-12T09:30:53.827Z,32.71
2022-09-12T09:31:53.798Z,32.71
2022-09-12T09:32:53.800Z,32.62
2022-09-12T09:33:53.797Z,32.52
2022-09-12T09:34:53.799Z,32.62
2022-09-12T09:35:53.799Z,32.71
2022-09-12T09:36:53.800Z,32.52
2022-09-12T09:37:58.494Z,32.62
2022-09-12T09:38:54.183Z,32.62
2022-09-12T09:39:53.913Z,32.42
2022-09-12T09:40:53.806Z,32.52
2022-09-12T09:41:53.821Z,32.52
2022-09-12T09:42:53.801Z,32.52
2022-09-12T09:43:53.889Z,32.52
2022-09-12T09:44:53.803Z,32.71
2022-09-12T09:45:53.848Z,32.81
2022-09-12T09:46:53.802Z,33.01
2022-09-12T09:47:53.802Z,32.62
2022-09-12T09:48:53.803Z,32.62
2022-09-12T09:49:53.804Z,32.71
2022-09-12T09:50:53.804Z,32.71
2022-09-12T09:51:56.605Z,32.71
2022-09-12T09:52:53.806Z,32.91
2022-09-12T09:53:53.809Z,32.71
2022-09-12T09:54:53.805Z,32.62
2022-09-12T09:55:53.803Z,32.52
2022-09-12T09:56:53.804Z,32.81
2022-09-12T09:57:53.830Z,32.71
2022-09-12T09:58:53.805Z,32.62
2022-09-12T09:59:53.804Z,32.81
2022-09-12T10:00:56.713Z,32.52
2022-09-12T10:01:53.811Z,32.62
2022-09-12T10:02:53.873Z,32.71
2022-09-12T10:03:53.813Z,32.71
2022-09-12T10:04:53.813Z,32.81
2022-09-12T10:05:53.807Z,32.91
2022-09-12T10:06:53.808Z,32.71
2022-09-12T10:07:53.808Z,32.91
2022-09-12T10:08:53.809Z,33.01
2022-09-12T10:09:53.806Z,33.01
2022-09-12T10:10:53.808Z,33.11
2022-09-12T10:11:53.807Z,33.01
2022-09-12T10:12:53.809Z,33.01
2022-09-12T10:13:53.829Z,33.20
2022-09-12T10:14:53.809Z,33.11
2022-09-12T10:15:53.863Z,33.11
2022-09-12T10:16:53.817Z,33.01
2022-09-12T10:17:53.808Z,33.11
2022-09-12T10:18:53.809Z,33.20
2022-09-12T10:20:17.549Z,33.20
2022-09-12T10:20:53.810Z,33.20
2022-09-12T10:21:53.809Z,33.20
2022-09-12T10:22:53.811Z,33.20
2022-09-12T10:23:53.810Z,33.59
2022-09-12T10:24:53.814Z,33.29
2022-09-12T10:25:53.811Z,33.20
2022-09-12T10:26:56.844Z,33.11
2022-09-12T10:27:53.811Z,33.20
2022-09-12T10:28:53.814Z,33.01
2022-09-12T10:29:53.833Z,33.39
2022-09-12T10:30:53.842Z,33.29
2022-09-12T10:31:53.812Z,33.49
2022-09-12T10:32:53.815Z,33.11
2022-09-12T10:33:53.817Z,33.29
2022-09-12T10:34:53.813Z,33.11
2022-09-12T10:35:53.814Z,33.59
2022-09-12T10:36:53.815Z,33.11
2022-09-12T10:37:53.813Z,33.11
2022-09-12T10:38:53.815Z,33.11
2022-09-12T10:39:53.893Z,33.20
2022-09-12T10:40:53.816Z,33.29
2022-09-12T10:41:53.814Z,33.29
2022-09-12T10:42:53.817Z,33.11
2022-09-12T10:43:53.815Z,33.20
2022-09-12T10:44:53.817Z,33.20
2022-09-12T10:45:53.864Z,33.29
2022-09-12T10:46:53.816Z,33.11
2022-09-12T10:47:53.817Z,33.20
2022-09-12T10:48:53.817Z,33.29
2022-09-12T10:49:53.816Z,33.29
2022-09-12T10:50:53.818Z,33.20
2022-09-12T10:51:53.817Z,33.49
2022-09-12T10:52:53.819Z,33.39
2022-09-12T10:53:53.817Z,33.11
2022-09-12T10:54:53.819Z,33.20
2022-09-12T10:55:53.818Z,33.29
2022-09-12T10:56:53.821Z,33.49
2022-09-12T10:57:53.818Z,33.20
2022-09-12T10:58:53.829Z,33.29
2022-09-12T10:59:53.819Z,33.49
2022-09-12T11:00:53.821Z,33.11
2022-09-12T11:01:53.882Z,33.20
2022-09-12T11:02:53.893Z,33.49
2022-09-12T11:03:53.821Z,33.59
2022-09-12T11:04:53.823Z,33.39
2022-09-12T11:05:53.821Z,33.20
2022-09-12T11:06:53.822Z,33.39
2022-09-12T11:07:53.821Z,33.39
2022-09-12T11:08:53.824Z,33.51
2022-09-12T11:09:53.821Z,33.49
2022-09-12T11:10:53.828Z,33.49
2022-09-12T11:11:53.823Z,33.39
2022-09-12T11:12:53.827Z,33.29
2022-09-12T11:13:53.822Z,33.29
2022-09-12T11:14:53.824Z,33.20
2022-09-12T11:15:53.930Z,33.49
2022-09-12T11:16:53.825Z,33.39
2022-09-12T11:17:53.846Z,33.59
2022-09-12T11:18:53.825Z,33.49
2022-09-12T11:19:53.824Z,33.49
2022-09-12T11:20:53.831Z,33.59
2022-09-12T11:21:53.825Z,33.39
2022-09-12T11:22:53.826Z,33.39
2022-09-12T11:23:53.827Z,33.39
2022-09-12T11:24:53.828Z,33.49
2022-09-12T11:25:53.827Z,33.69
2022-09-12T11:26:53.827Z,33.59
2022-09-12T11:27:53.827Z,33.49
2022-09-12T11:28:53.829Z,33.69
2022-09-12T11:29:53.828Z,33.88
2022-09-12T11:30:53.887Z,33.49
2022-09-12T11:31:53.828Z,33.59
2022-09-12T11:32:53.831Z,33.59
2022-09-12T11:33:56.665Z,33.49
2022-09-12T11:34:53.829Z,33.78
2022-09-12T11:35:55.630Z,33.88
2022-09-12T11:36:53.831Z,33.78
2022-09-12T11:37:53.829Z,33.69
2022-09-12T11:38:53.830Z,33.69
2022-09-12T11:39:55.842Z,33.69
2022-09-12T11:40:53.832Z,33.69
2022-09-12T11:41:53.831Z,33.69
2022-09-12T11:42:53.836Z,34.08
2022-09-12T11:43:53.831Z,33.78
2022-09-12T11:44:53.832Z,33.78
2022-09-12T11:45:53.898Z,33.78
2022-09-12T11:46:53.833Z,33.88
2022-09-12T11:47:53.832Z,33.69
2022-09-12T11:48:53.834Z,33.69
2022-09-12T11:49:53.856Z,33.88
2022-09-12T11:50:53.834Z,33.88
2022-09-12T11:51:53.834Z,33.98
2022-09-12T11:52:53.836Z,33.88
2022-09-12T11:53:53.834Z,33.98
2022-09-12T11:54:54.225Z,33.88
2022-09-12T11:55:53.835Z,33.88
2022-09-12T11:56:53.836Z,33.88
2022-09-12T11:57:53.834Z,33.98
2022-09-12T11:58:53.837Z,34.36
2022-09-12T11:59:53.836Z,33.78
2022-09-12T12:00:53.837Z,33.98
2022-09-12T12:01:53.836Z,34.17
2022-09-12T12:02:53.842Z,33.78
2022-09-12T12:03:53.891Z,33.78
2022-09-12T12:04:53.838Z,34.17
2022-09-12T12:05:53.860Z,34.27
2022-09-12T12:06:53.837Z,34.36
2022-09-12T12:07:53.838Z,34.08
2022-09-12T12:08:53.838Z,33.78
2022-09-12T12:09:53.839Z,33.98
2022-09-12T12:10:53.839Z,34.36
2022-09-12T12:11:53.840Z,34.08
2022-09-12T12:12:53.840Z,34.46
2022-09-12T12:13:53.840Z,34.17
2022-09-12T12:14:53.845Z,34.46
2022-09-12T12:15:53.908Z,34.08
2022-09-12T12:16:53.841Z,34.08
2022-09-12T12:17:53.841Z,33.78
2022-09-12T12:18:53.841Z,33.98
2022-09-12T12:19:53.843Z,33.98
2022-09-12T12:20:53.841Z,34.36
2022-09-12T12:21:53.863Z,34.36
2022-09-12T12:22:53.841Z,34.08
2022-09-12T12:23:53.845Z,33.88
2022-09-12T12:24:53.842Z,34.17
2022-09-12T12:25:53.862Z,34.08
2022-09-12T12:26:53.844Z,34.08
2022-09-12T12:27:53.864Z,33.88
2022-09-12T12:28:53.844Z,33.78
2022-09-12T12:29:53.845Z,33.88
2022-09-12T12:30:53.918Z,33.78
2022-09-12T12:31:53.847Z,33.88
2022-09-12T12:32:53.845Z,33.88
2022-09-12T12:33:53.846Z,33.78
2022-09-12T12:34:53.845Z,33.69
2022-09-12T12:35:53.847Z,33.78
2022-09-12T12:36:53.847Z,33.78
2022-09-12T12:37:53.885Z,33.78
2022-09-12T12:38:53.847Z,33.78
2022-09-12T12:39:53.990Z,33.78
2022-09-12T12:40:53.847Z,33.88
2022-09-12T12:41:53.847Z,33.78
2022-09-12T12:42:53.847Z,33.69
2022-09-12T12:43:53.848Z,34.09
2022-09-12T12:44:53.848Z,33.78
2022-09-12T12:45:53.871Z,33.98
2022-09-12T12:46:53.851Z,33.69
2022-09-12T12:47:53.849Z,33.61
2022-09-12T12:48:53.853Z,33.59
2022-09-12T12:49:53.850Z,33.59
2022-09-12T12:50:53.850Z,33.59
2022-09-12T12:51:53.850Z,33.49
2022-09-12T12:52:53.855Z,33.49